Login Failed! Either your Controller ID or Password is incorrect. Please try again.
Winnipeg Flight Information Region Airport Weather Information

Civilian

Winnipeg (CYWG) Weather
2019/03/20 19:00 CYWG 201900Z 01008KT 15SM FEW024 03/M01 A3015 RMK SC1 SLP223
 
Portage la Prairie/Southport (CYPG) Weather
2019/03/20 19:00 CYPG 201900Z 30007KT 15SM FEW015 FEW240 03/M01 A3017 RMK CF1CI1 CUFRA TR SLP229
 
Thunder Bay (CYQT) Weather
2019/03/20 19:00 CYQT 201900Z 03005KT 15SM OVC017 03/02 A2991 RMK SC8 SLP138
 
Regina (CYQR) Weather
2019/03/20 19:00 CYQR 201900Z 24005KT 15SM SKC 07/02 A3017 RMK SLP242
 
Saskatoon (CYQT) Weather
2019/03/20 19:00 CYXE 201900Z 23009KT 15SM SKC 07/01 A3013 RMK SLP230
 


Military

Moose Jaw (CYMJ) Weather
2019/03/20 19:00 CYMJ 201900Z 26006KT 10SM SKC 11/03 A3017 RMK HAZY W QUAD SLP237
 
Weather Information
Winnipeg Airport Weather

Updated Wed Mar 20, 19:00 Zulu

Winds 10 at 08 knots
Visibility 15 statute miles
Temp. 3°C
Dew point -1°C
Altimiter 30.15

Click for full weather METAR

Who's Online

No positions online

FIR Information

New Controllers
 
Travis Chan C1
Bailey Brown C1
Owen Kane I1
 
Recent Promotions
 

Powered By